sensor_id;sensor_type;location;lat;lon;timestamp;P1;durP1;ratioP1;P2;durP2;ratioP2
10162;SDS011;5123;52.556;13.384;2023-09-30T00:02:23;4.57;;;1.60;;
10162;SDS011;5123;52.556;13.384;2023-09-30T00:04:57;4.50;;;1.30;;
10162;SDS011;5123;52.556;13.384;2023-09-30T00:07:34;7.37;;;1.73;;
10162;SDS011;5123;52.556;13.384;2023-09-30T00:10:08;5.53;;;2.13;;
10162;SDS011;5123;52.556;13.384;2023-09-30T00:12:41;5.47;;;1.80;;
10162;SDS011;5123;52.556;13.384;2023-09-30T00:15:14;7.73;;;2.17;;
10162;SDS011;5123;52.556;13.384;2023-09-30T00:17:48;7.77;;;2.70;;
10162;SDS011;5123;52.556;13.384;2023-09-30T00:20:21;3.90;;;2.30;;
10162;SDS011;5123;52.556;13.384;2023-09-30T00:22:55;5.50;;;2.37;;
10162;SDS011;5123;52.556;13.384;2023-09-30T00:25:28;5.87;;;2.83;;
10162;SDS011;5123;52.556;13.384;2023-09-30T00:28:01;5.70;;;2.43;;
10162;SDS011;5123;52.556;13.384;2023-09-30T00:30:33;5.03;;;2.30;;
10162;SDS011;5123;52.556;13.384;2023-09-30T00:33:06;5.23;;;2.80;;
10162;SDS011;5123;52.556;13.384;2023-09-30T00:35:39;8.13;;;2.80;;
10162;SDS011;5123;52.556;13.384;2023-09-30T00:38:13;5.63;;;2.30;;
10162;SDS011;5123;52.556;13.384;2023-09-30T00:40:47;6.97;;;2.43;;
10162;SDS011;5123;52.556;13.384;2023-09-30T00:43:20;7.87;;;2.70;;
10162;SDS011;5123;52.556;13.384;2023-09-30T00:45:55;4.87;;;2.40;;
10162;SDS011;5123;52.556;13.384;2023-09-30T00:48:37;7.07;;;2.43;;
10162;SDS011;5123;52.556;13.384;2023-09-30T00:51:10;6.77;;;2.97;;
10162;SDS011;5123;52.556;13.384;2023-09-30T00:53:47;4.90;;;2.60;;
10162;SDS011;5123;52.556;13.384;2023-09-30T00:56:20;4.53;;;2.40;;
10162;SDS011;5123;52.556;13.384;2023-09-30T00:58:55;6.03;;;2.53;;
10162;SDS011;5123;52.556;13.384;2023-09-30T01:01:28;6.87;;;2.83;;
10162;SDS011;5123;52.556;13.384;2023-09-30T01:04:00;7.10;;;2.73;;
10162;SDS011;5123;52.556;13.384;2023-09-30T01:06:34;7.63;;;2.60;;
10162;SDS011;5123;52.556;13.384;2023-09-30T01:09:09;7.20;;;2.70;;
10162;SDS011;5123;52.556;13.384;2023-09-30T01:11:41;6.83;;;2.93;;
10162;SDS011;5123;52.556;13.384;2023-09-30T01:14:23;6.10;;;2.70;;
10162;SDS011;5123;52.556;13.384;2023-09-30T01:16:57;8.37;;;3.00;;
10162;SDS011;5123;52.556;13.384;2023-09-30T01:19:30;5.30;;;2.60;;
10162;SDS011;5123;52.556;13.384;2023-09-30T01:22:04;11.03;;;2.70;;
10162;SDS011;5123;52.556;13.384;2023-09-30T01:24:40;4.67;;;2.13;;
10162;SDS011;5123;52.556;13.384;2023-09-30T01:27:13;5.77;;;2.50;;
10162;SDS011;5123;52.556;13.384;2023-09-30T01:29:49;7.03;;;2.87;;
10162;SDS011;5123;52.556;13.384;2023-09-30T01:32:22;6.57;;;3.10;;
10162;SDS011;5123;52.556;13.384;2023-09-30T01:34:55;6.47;;;2.40;;
10162;SDS011;5123;52.556;13.384;2023-09-30T01:37:31;6.73;;;2.83;;
10162;SDS011;5123;52.556;13.384;2023-09-30T01:40:04;13.30;;;3.33;;
10162;SDS011;5123;52.556;13.384;2023-09-30T01:42:42;8.37;;;2.70;;
10162;SDS011;5123;52.556;13.384;2023-09-30T01:45:15;5.27;;;2.60;;
10162;SDS011;5123;52.556;13.384;2023-09-30T01:47:47;12.40;;;2.97;;
10162;SDS011;5123;52.556;13.384;2023-09-30T01:50:20;7.07;;;3.10;;
10162;SDS011;5123;52.556;13.384;2023-09-30T01:52:54;7.10;;;3.23;;
10162;SDS011;5123;52.556;13.384;2023-09-30T01:55:27;7.57;;;2.87;;
10162;SDS011;5123;52.556;13.384;2023-09-30T01:58:00;8.30;;;3.00;;
10162;SDS011;5123;52.556;13.384;2023-09-30T02:00:34;8.80;;;3.00;;
10162;SDS011;5123;52.556;13.384;2023-09-30T02:03:07;7.30;;;3.13;;
10162;SDS011;5123;52.556;13.384;2023-09-30T02:05:40;8.50;;;3.60;;
10162;SDS011;5123;52.556;13.384;2023-09-30T02:08:14;7.40;;;3.37;;
10162;SDS011;5123;52.556;13.384;2023-09-30T02:10:47;7.47;;;2.83;;
10162;SDS011;5123;52.556;13.384;2023-09-30T02:13:20;8.23;;;3.13;;
10162;SDS011;5123;52.556;13.384;2023-09-30T02:15:55;10.13;;;3.53;;
10162;SDS011;5123;52.556;13.384;2023-09-30T02:18:27;9.17;;;3.47;;
10162;SDS011;5123;52.556;13.384;2023-09-30T02:21:03;10.03;;;3.10;;
10162;SDS011;5123;52.556;13.384;2023-09-30T02:23:37;7.17;;;3.37;;
10162;SDS011;5123;52.556;13.384;2023-09-30T02:26:10;6.07;;;2.87;;
10162;SDS011;5123;52.556;13.384;2023-09-30T02:28:43;8.20;;;3.50;;
10162;SDS011;5123;52.556;13.384;2023-09-30T02:31:22;9.97;;;3.27;;
10162;SDS011;5123;52.556;13.384;2023-09-30T02:33:55;6.80;;;3.07;;
10162;SDS011;5123;52.556;13.384;2023-09-30T02:36:29;11.60;;;3.87;;
10162;SDS011;5123;52.556;13.384;2023-09-30T02:39:03;8.67;;;3.13;;
10162;SDS011;5123;52.556;13.384;2023-09-30T02:41:36;9.37;;;3.03;;
10162;SDS011;5123;52.556;13.384;2023-09-30T02:44:09;14.20;;;3.30;;
10162;SDS011;5123;52.556;13.384;2023-09-30T02:46:42;8.23;;;3.30;;
10162;SDS011;5123;52.556;13.384;2023-09-30T02:49:15;6.63;;;3.60;;
10162;SDS011;5123;52.556;13.384;2023-09-30T02:51:48;7.10;;;3.60;;
10162;SDS011;5123;52.556;13.384;2023-09-30T02:54:25;15.17;;;3.60;;
10162;SDS011;5123;52.556;13.384;2023-09-30T02:56:58;7.30;;;3.20;;
10162;SDS011;5123;52.556;13.384;2023-09-30T02:59:37;12.73;;;3.70;;
10162;SDS011;5123;52.556;13.384;2023-09-30T03:02:10;7.97;;;2.87;;
10162;SDS011;5123;52.556;13.384;2023-09-30T03:04:43;7.60;;;3.37;;
10162;SDS011;5123;52.556;13.384;2023-09-30T03:07:17;10.07;;;3.67;;
10162;SDS011;5123;52.556;13.384;2023-09-30T03:09:52;12.57;;;3.50;;
10162;SDS011;5123;52.556;13.384;2023-09-30T03:12:25;12.00;;;4.00;;
10162;SDS011;5123;52.556;13.384;2023-09-30T03:14:58;13.33;;;3.67;;
10162;SDS011;5123;52.556;13.384;2023-09-30T03:17:36;8.77;;;4.13;;
10162;SDS011;5123;52.556;13.384;2023-09-30T03:20:13;10.30;;;3.33;;
10162;SDS011;5123;52.556;13.384;2023-09-30T03:22:50;11.67;;;3.40;;
10162;SDS011;5123;52.556;13.384;2023-09-30T03:25:25;8.50;;;3.20;;
10162;SDS011;5123;52.556;13.384;2023-09-30T03:27:58;10.03;;;3.27;;
10162;SDS011;5123;52.556;13.384;2023-09-30T03:30:31;8.27;;;3.83;;
10162;SDS011;5123;52.556;13.384;2023-09-30T03:33:04;9.77;;;3.80;;
10162;SDS011;5123;52.556;13.384;2023-09-30T03:35:40;11.07;;;3.77;;
10162;SDS011;5123;52.556;13.384;2023-09-30T03:38:13;12.77;;;3.53;;
10162;SDS011;5123;52.556;13.384;2023-09-30T03:40:51;12.97;;;4.07;;
10162;SDS011;5123;52.556;13.384;2023-09-30T03:43:26;10.70;;;3.97;;
10162;SDS011;5123;52.556;13.384;2023-09-30T03:45:58;7.43;;;3.67;;
10162;SDS011;5123;52.556;13.384;2023-09-30T03:48:34;14.67;;;4.50;;
10162;SDS011;5123;52.556;13.384;2023-09-30T03:51:10;7.97;;;3.17;;
10162;SDS011;5123;52.556;13.384;2023-09-30T03:53:45;9.63;;;3.80;;
10162;SDS011;5123;52.556;13.384;2023-09-30T03:56:19;11.43;;;3.80;;
10162;SDS011;5123;52.556;13.384;2023-09-30T03:58:53;10.97;;;3.90;;
10162;SDS011;5123;52.556;13.384;2023-09-30T04:01:29;15.67;;;4.30;;
10162;SDS011;5123;52.556;13.384;2023-09-30T04:04:05;9.40;;;3.90;;
10162;SDS011;5123;52.556;13.384;2023-09-30T04:06:38;6.77;;;3.60;;
10162;SDS011;5123;52.556;13.384;2023-09-30T04:09:15;11.70;;;4.20;;
10162;SDS011;5123;52.556;13.384;2023-09-30T04:11:49;13.73;;;4.27;;
10162;SDS011;5123;52.556;13.384;2023-09-30T04:14:22;9.67;;;3.73;;
10162;SDS011;5123;52.556;13.384;2023-09-30T04:16:56;12.50;;;4.53;;
10162;SDS011;5123;52.556;13.384;2023-09-30T04:19:29;11.93;;;4.43;;
10162;SDS011;5123;52.556;13.384;2023-09-30T04:22:03;9.33;;;3.50;;
10162;SDS011;5123;52.556;13.384;2023-09-30T04:24:38;10.00;;;3.50;;
10162;SDS011;5123;52.556;13.384;2023-09-30T04:27:15;14.53;;;4.73;;
10162;SDS011;5123;52.556;13.384;2023-09-30T04:29:54;10.23;;;3.87;;
10162;SDS011;5123;52.556;13.384;2023-09-30T04:32:27;9.97;;;3.90;;
10162;SDS011;5123;52.556;13.384;2023-09-30T04:35:00;11.20;;;4.07;;
10162;SDS011;5123;52.556;13.384;2023-09-30T04:37:33;10.73;;;4.00;;
10162;SDS011;5123;52.556;13.384;2023-09-30T04:40:06;11.83;;;4.57;;
10162;SDS011;5123;52.556;13.384;2023-09-30T04:42:50;13.13;;;3.97;;
10162;SDS011;5123;52.556;13.384;2023-09-30T04:45:25;8.03;;;3.90;;
10162;SDS011;5123;52.556;13.384;2023-09-30T04:48:00;10.50;;;4.20;;
10162;SDS011;5123;52.556;13.384;2023-09-30T04:50:34;9.63;;;4.40;;
10162;SDS011;5123;52.556;13.384;2023-09-30T04:53:07;12.00;;;4.87;;
10162;SDS011;5123;52.556;13.384;2023-09-30T04:55:40;12.17;;;3.97;;
10162;SDS011;5123;52.556;13.384;2023-09-30T04:58:14;10.77;;;4.20;;
10162;SDS011;5123;52.556;13.384;2023-09-30T05:00:54;10.40;;;4.10;;
10162;SDS011;5123;52.556;13.384;2023-09-30T05:03:30;12.73;;;4.40;;
10162;SDS011;5123;52.556;13.384;2023-09-30T05:06:03;12.20;;;4.03;;
10162;SDS011;5123;52.556;13.384;2023-09-30T05:08:39;11.93;;;4.27;;
10162;SDS011;5123;52.556;13.384;2023-09-30T05:11:11;11.37;;;4.07;;
10162;SDS011;5123;52.556;13.384;2023-09-30T05:13:48;11.67;;;4.53;;
10162;SDS011;5123;52.556;13.384;2023-09-30T05:16:22;10.37;;;4.30;;
10162;SDS011;5123;52.556;13.384;2023-09-30T05:18:58;9.83;;;3.80;;
10162;SDS011;5123;52.556;13.384;2023-09-30T05:21:31;9.00;;;4.10;;
10162;SDS011;5123;52.556;13.384;2023-09-30T05:24:07;14.00;;;4.37;;
10162;SDS011;5123;52.556;13.384;2023-09-30T05:26:40;9.27;;;4.43;;
10162;SDS011;5123;52.556;13.384;2023-09-30T05:29:16;9.23;;;4.00;;
10162;SDS011;5123;52.556;13.384;2023-09-30T05:31:49;14.07;;;4.30;;
10162;SDS011;5123;52.556;13.384;2023-09-30T05:34:22;12.13;;;4.50;;
10162;SDS011;5123;52.556;13.384;2023-09-30T05:36:58;14.43;;;3.83;;
10162;SDS011;5123;52.556;13.384;2023-09-30T05:39:31;14.47;;;4.80;;
10162;SDS011;5123;52.556;13.384;2023-09-30T05:42:08;11.13;;;4.03;;
10162;SDS011;5123;52.556;13.384;2023-09-30T05:44:43;15.57;;;4.17;;
10162;SDS011;5123;52.556;13.384;2023-09-30T05:47:17;9.50;;;4.20;;
10162;SDS011;5123;52.556;13.384;2023-09-30T05:49:50;9.07;;;4.03;;
10162;SDS011;5123;52.556;13.384;2023-09-30T05:52:23;12.17;;;4.67;;
10162;SDS011;5123;52.556;13.384;2023-09-30T05:54:56;7.60;;;3.50;;
10162;SDS011;5123;52.556;13.384;2023-09-30T05:57:28;10.37;;;4.50;;
10162;SDS011;5123;52.556;13.384;2023-09-30T06:00:03;11.13;;;4.47;;
10162;SDS011;5123;52.556;13.384;2023-09-30T06:02:42;11.90;;;3.97;;
10162;SDS011;5123;52.556;13.384;2023-09-30T06:05:15;11.70;;;4.33;;
10162;SDS011;5123;52.556;13.384;2023-09-30T06:07:50;12.90;;;4.23;;
10162;SDS011;5123;52.556;13.384;2023-09-30T06:10:25;14.07;;;3.73;;
10162;SDS011;5123;52.556;13.384;2023-09-30T06:12:58;13.43;;;4.00;;
10162;SDS011;5123;52.556;13.384;2023-09-30T06:15:36;11.67;;;4.30;;
10162;SDS011;5123;52.556;13.384;2023-09-30T06:18:13;8.17;;;4.00;;
10162;SDS011;5123;52.556;13.384;2023-09-30T06:20:46;11.87;;;3.80;;
10162;SDS011;5123;52.556;13.384;2023-09-30T06:23:22;9.13;;;4.03;;
10162;SDS011;5123;52.556;13.384;2023-09-30T06:25:54;10.30;;;4.43;;
10162;SDS011;5123;52.556;13.384;2023-09-30T06:28:27;17.87;;;5.27;;
10162;SDS011;5123;52.556;13.384;2023-09-30T06:31:06;8.87;;;3.73;;
10162;SDS011;5123;52.556;13.384;2023-09-30T06:33:43;11.93;;;4.20;;
10162;SDS011;5123;52.556;13.384;2023-09-30T06:36:17;9.90;;;3.50;;
10162;SDS011;5123;52.556;13.384;2023-09-30T06:38:52;10.00;;;3.63;;
10162;SDS011;5123;52.556;13.384;2023-09-30T06:41:25;8.60;;;3.70;;
10162;SDS011;5123;52.556;13.384;2023-09-30T06:43:58;11.93;;;4.03;;
10162;SDS011;5123;52.556;13.384;2023-09-30T06:46:32;13.97;;;4.17;;
10162;SDS011;5123;52.556;13.384;2023-09-30T06:49:05;10.27;;;3.20;;
10162;SDS011;5123;52.556;13.384;2023-09-30T06:51:38;10.07;;;4.20;;
10162;SDS011;5123;52.556;13.384;2023-09-30T06:54:11;9.93;;;4.37;;
10162;SDS011;5123;52.556;13.384;2023-09-30T06:56:44;9.37;;;3.90;;
10162;SDS011;5123;52.556;13.384;2023-09-30T06:59:16;9.43;;;3.60;;
10162;SDS011;5123;52.556;13.384;2023-09-30T07:01:51;12.47;;;4.57;;
10162;SDS011;5123;52.556;13.384;2023-09-30T07:04:31;8.57;;;3.37;;
10162;SDS011;5123;52.556;13.384;2023-09-30T07:07:04;8.23;;;3.57;;
10162;SDS011;5123;52.556;13.384;2023-09-30T07:09:37;12.53;;;4.23;;
10162;SDS011;5123;52.556;13.384;2023-09-30T07:12:12;11.23;;;3.97;;
10162;SDS011;5123;52.556;13.384;2023-09-30T07:14:45;7.47;;;3.40;;
10162;SDS011;5123;52.556;13.384;2023-09-30T07:17:22;11.93;;;3.60;;
10162;SDS011;5123;52.556;13.384;2023-09-30T07:19:54;9.33;;;3.77;;
10162;SDS011;5123;52.556;13.384;2023-09-30T07:22:27;8.97;;;3.53;;
10162;SDS011;5123;52.556;13.384;2023-09-30T07:25:16;9.47;;;4.23;;
10162;SDS011;5123;52.556;13.384;2023-09-30T07:27:51;12.77;;;4.13;;
10162;SDS011;5123;52.556;13.384;2023-09-30T07:30:24;8.87;;;3.77;;
10162;SDS011;5123;52.556;13.384;2023-09-30T07:32:59;10.97;;;3.87;;
10162;SDS011;5123;52.556;13.384;2023-09-30T07:35:32;9.53;;;3.20;;
10162;SDS011;5123;52.556;13.384;2023-09-30T07:38:05;8.60;;;3.57;;
10162;SDS011;5123;52.556;13.384;2023-09-30T07:40:40;10.83;;;4.67;;
10162;SDS011;5123;52.556;13.384;2023-09-30T07:43:14;12.83;;;3.80;;
10162;SDS011;5123;52.556;13.384;2023-09-30T07:45:49;12.13;;;4.60;;
10162;SDS011;5123;52.556;13.384;2023-09-30T07:48:23;13.03;;;4.53;;
10162;SDS011;5123;52.556;13.384;2023-09-30T07:50:56;10.40;;;3.80;;
10162;SDS011;5123;52.556;13.384;2023-09-30T07:53:29;11.47;;;4.03;;
10162;SDS011;5123;52.556;13.384;2023-09-30T07:56:02;9.47;;;4.03;;
10162;SDS011;5123;52.556;13.384;2023-09-30T07:58:35;11.80;;;4.23;;
10162;SDS011;5123;52.556;13.384;2023-09-30T08:01:07;11.87;;;3.67;;
10162;SDS011;5123;52.556;13.384;2023-09-30T08:03:42;15.43;;;4.47;;
10162;SDS011;5123;52.556;13.384;2023-09-30T08:06:15;10.87;;;4.03;;
10162;SDS011;5123;52.556;13.384;2023-09-30T08:08:47;10.87;;;3.80;;
10162;SDS011;5123;52.556;13.384;2023-09-30T08:11:20;8.77;;;3.47;;
10162;SDS011;5123;52.556;13.384;2023-09-30T08:13:54;8.20;;;3.63;;
10162;SDS011;5123;52.556;13.384;2023-09-30T08:16:27;10.50;;;3.87;;
10162;SDS011;5123;52.556;13.384;2023-09-30T08:19:01;8.73;;;3.13;;
10162;SDS011;5123;52.556;13.384;2023-09-30T08:21:34;10.93;;;4.33;;
10162;SDS011;5123;52.556;13.384;2023-09-30T08:24:07;12.33;;;4.43;;
10162;SDS011;5123;52.556;13.384;2023-09-30T08:26:40;13.50;;;3.23;;
10162;SDS011;5123;52.556;13.384;2023-09-30T08:29:13;10.60;;;4.10;;
10162;SDS011;5123;52.556;13.384;2023-09-30T08:31:46;10.63;;;3.10;;
10162;SDS011;5123;52.556;13.384;2023-09-30T08:34:20;12.23;;;3.87;;
10162;SDS011;5123;52.556;13.384;2023-09-30T08:36:55;9.00;;;3.47;;
10162;SDS011;5123;52.556;13.384;2023-09-30T08:39:28;9.13;;;3.67;;
10162;SDS011;5123;52.556;13.384;2023-09-30T08:42:02;8.27;;;2.93;;
10162;SDS011;5123;52.556;13.384;2023-09-30T08:44:37;6.97;;;3.33;;
10162;SDS011;5123;52.556;13.384;2023-09-30T08:47:15;10.63;;;4.10;;
10162;SDS011;5123;52.556;13.384;2023-09-30T08:49:49;11.23;;;4.23;;
10162;SDS011;5123;52.556;13.384;2023-09-30T08:52:28;15.07;;;3.90;;
10162;SDS011;5123;52.556;13.384;2023-09-30T08:55:07;7.60;;;3.30;;
10162;SDS011;5123;52.556;13.384;2023-09-30T08:57:41;8.17;;;3.30;;
10162;SDS011;5123;52.556;13.384;2023-09-30T09:00:14;8.93;;;3.43;;
10162;SDS011;5123;52.556;13.384;2023-09-30T09:02:47;9.00;;;3.07;;
10162;SDS011;5123;52.556;13.384;2023-09-30T09:05:23;10.30;;;3.23;;
10162;SDS011;5123;52.556;13.384;2023-09-30T09:07:56;7.17;;;3.03;;
10162;SDS011;5123;52.556;13.384;2023-09-30T09:10:29;11.73;;;3.43;;
10162;SDS011;5123;52.556;13.384;2023-09-30T09:13:04;7.97;;;2.97;;
10162;SDS011;5123;52.556;13.384;2023-09-30T09:15:37;7.07;;;3.10;;
10162;SDS011;5123;52.556;13.384;2023-09-30T09:18:10;8.13;;;3.20;;
10162;SDS011;5123;52.556;13.384;2023-09-30T09:20:47;6.83;;;2.80;;
10162;SDS011;5123;52.556;13.384;2023-09-30T09:23:20;9.83;;;2.77;;
10162;SDS011;5123;52.556;13.384;2023-09-30T09:25:53;10.47;;;3.30;;
10162;SDS011;5123;52.556;13.384;2023-09-30T09:28:33;10.33;;;3.40;;
10162;SDS011;5123;52.556;13.384;2023-09-30T09:31:19;9.00;;;2.90;;
10162;SDS011;5123;52.556;13.384;2023-09-30T09:33:53;16.40;;;3.20;;
10162;SDS011;5123;52.556;13.384;2023-09-30T09:36:39;11.37;;;3.27;;
10162;SDS011;5123;52.556;13.384;2023-09-30T09:39:15;7.23;;;3.27;;
10162;SDS011;5123;52.556;13.384;2023-09-30T09:41:51;7.43;;;2.90;;
10162;SDS011;5123;52.556;13.384;2023-09-30T09:44:24;6.60;;;2.87;;
10162;SDS011;5123;52.556;13.384;2023-09-30T09:47:00;9.70;;;3.37;;
10162;SDS011;5123;52.556;13.384;2023-09-30T09:49:34;8.23;;;2.97;;
10162;SDS011;5123;52.556;13.384;2023-09-30T09:52:11;7.53;;;2.80;;
10162;SDS011;5123;52.556;13.384;2023-09-30T09:54:48;5.93;;;3.07;;
10162;SDS011;5123;52.556;13.384;2023-09-30T09:57:22;9.53;;;3.30;;
10162;SDS011;5123;52.556;13.384;2023-09-30T09:59:57;14.03;;;3.60;;
10162;SDS011;5123;52.556;13.384;2023-09-30T10:02:31;6.10;;;2.97;;
10162;SDS011;5123;52.556;13.384;2023-09-30T10:05:05;10.17;;;3.87;;
10162;SDS011;5123;52.556;13.384;2023-09-30T10:07:40;7.80;;;3.00;;
10162;SDS011;5123;52.556;13.384;2023-09-30T10:10:15;6.17;;;2.63;;
10162;SDS011;5123;52.556;13.384;2023-09-30T10:12:49;14.23;;;4.00;;
10162;SDS011;5123;52.556;13.384;2023-09-30T10:15:34;6.70;;;2.57;;
10162;SDS011;5123;52.556;13.384;2023-09-30T10:18:07;10.23;;;2.50;;
10162;SDS011;5123;52.556;13.384;2023-09-30T10:20:46;8.17;;;2.73;;
10162;SDS011;5123;52.556;13.384;2023-09-30T10:23:23;9.17;;;2.60;;
10162;SDS011;5123;52.556;13.384;2023-09-30T10:28:45;9.60;;;2.87;;
10162;SDS011;5123;52.556;13.384;2023-09-30T10:31:22;5.13;;;1.83;;
10162;SDS011;5123;52.556;13.384;2023-09-30T10:36:48;8.03;;;3.17;;
10162;SDS011;5123;52.556;13.384;2023-09-30T10:42:14;6.63;;;3.03;;
10162;SDS011;5123;52.556;13.384;2023-09-30T10:47:58;7.50;;;2.47;;
10162;SDS011;5123;52.556;13.384;2023-09-30T10:50:49;8.13;;;2.63;;
10162;SDS011;5123;52.556;13.384;2023-09-30T10:53:22;5.80;;;2.80;;
10162;SDS011;5123;52.556;13.384;2023-09-30T10:55:56;8.10;;;2.33;;
10162;SDS011;5123;52.556;13.384;2023-09-30T10:58:43;6.37;;;2.50;;
10162;SDS011;5123;52.556;13.384;2023-09-30T11:01:21;5.07;;;2.07;;
10162;SDS011;5123;52.556;13.384;2023-09-30T11:03:58;11.20;;;3.70;;
10162;SDS011;5123;52.556;13.384;2023-09-30T11:06:35;10.77;;;3.27;;
10162;SDS011;5123;52.556;13.384;2023-09-30T11:09:15;7.90;;;2.73;;
10162;SDS011;5123;52.556;13.384;2023-09-30T11:11:49;7.37;;;2.43;;
10162;SDS011;5123;52.556;13.384;2023-09-30T11:14:23;10.17;;;2.70;;
10162;SDS011;5123;52.556;13.384;2023-09-30T11:17:00;6.77;;;2.43;;
10162;SDS011;5123;52.556;13.384;2023-09-30T11:19:36;4.97;;;2.60;;
10162;SDS011;5123;52.556;13.384;2023-09-30T11:22:09;7.33;;;2.90;;
10162;SDS011;5123;52.556;13.384;2023-09-30T11:24:42;8.90;;;3.33;;
10162;SDS011;5123;52.556;13.384;2023-09-30T11:27:27;8.07;;;2.40;;
10162;SDS011;5123;52.556;13.384;2023-09-30T11:30:01;6.10;;;2.27;;
10162;SDS011;5123;52.556;13.384;2023-09-30T11:32:34;5.73;;;2.13;;
10162;SDS011;5123;52.556;13.384;2023-09-30T11:35:08;8.97;;;3.37;;
10162;SDS011;5123;52.556;13.384;2023-09-30T11:37:41;4.43;;;2.00;;
10162;SDS011;5123;52.556;13.384;2023-09-30T11:40:16;6.40;;;2.87;;
10162;SDS011;5123;52.556;13.384;2023-09-30T11:43:07;6.07;;;1.97;;
10162;SDS011;5123;52.556;13.384;2023-09-30T11:45:41;8.70;;;2.10;;
10162;SDS011;5123;52.556;13.384;2023-09-30T11:48:17;6.97;;;2.13;;
10162;SDS011;5123;52.556;13.384;2023-09-30T11:50:52;7.33;;;2.20;;
10162;SDS011;5123;52.556;13.384;2023-09-30T11:53:26;10.10;;;2.77;;
10162;SDS011;5123;52.556;13.384;2023-09-30T11:55:59;7.33;;;2.10;;
10162;SDS011;5123;52.556;13.384;2023-09-30T11:58:37;6.60;;;2.60;;
10162;SDS011;5123;52.556;13.384;2023-09-30T12:01:12;7.93;;;2.60;;
10162;SDS011;5123;52.556;13.384;2023-09-30T12:03:45;4.97;;;2.67;;
10162;SDS011;5123;52.556;13.384;2023-09-30T12:06:19;5.70;;;2.27;;
10162;SDS011;5123;52.556;13.384;2023-09-30T12:08:54;6.83;;;2.53;;
10162;SDS011;5123;52.556;13.384;2023-09-30T12:11:29;6.27;;;2.03;;
10162;SDS011;5123;52.556;13.384;2023-09-30T12:14:03;8.47;;;2.60;;
10162;SDS011;5123;52.556;13.384;2023-09-30T12:16:37;7.97;;;2.83;;
10162;SDS011;5123;52.556;13.384;2023-09-30T12:19:10;6.67;;;2.50;;
10162;SDS011;5123;52.556;13.384;2023-09-30T12:21:44;5.60;;;2.47;;
10162;SDS011;5123;52.556;13.384;2023-09-30T12:24:22;6.57;;;2.17;;
10162;SDS011;5123;52.556;13.384;2023-09-30T12:26:57;5.53;;;2.10;;
10162;SDS011;5123;52.556;13.384;2023-09-30T12:29:32;6.43;;;2.33;;
10162;SDS011;5123;52.556;13.384;2023-09-30T12:32:07;6.93;;;2.53;;
10162;SDS011;5123;52.556;13.384;2023-09-30T12:34:40;8.13;;;2.47;;
10162;SDS011;5123;52.556;13.384;2023-09-30T12:37:12;7.57;;;2.97;;
10162;SDS011;5123;52.556;13.384;2023-09-30T12:39:45;5.50;;;2.70;;
10162;SDS011;5123;52.556;13.384;2023-09-30T12:42:19;10.53;;;2.93;;
10162;SDS011;5123;52.556;13.384;2023-09-30T12:44:54;5.50;;;2.03;;
10162;SDS011;5123;52.556;13.384;2023-09-30T12:47:28;6.80;;;2.70;;
10162;SDS011;5123;52.556;13.384;2023-09-30T12:50:01;6.97;;;2.40;;
10162;SDS011;5123;52.556;13.384;2023-09-30T12:52:34;4.87;;;2.07;;
10162;SDS011;5123;52.556;13.384;2023-09-30T12:55:07;4.87;;;1.73;;
10162;SDS011;5123;52.556;13.384;2023-09-30T12:57:40;4.57;;;2.13;;
10162;SDS011;5123;52.556;13.384;2023-09-30T13:00:16;6.10;;;2.37;;
10162;SDS011;5123;52.556;13.384;2023-09-30T13:02:51;4.23;;;1.97;;
10162;SDS011;5123;52.556;13.384;2023-09-30T13:05:24;7.10;;;2.00;;
10162;SDS011;5123;52.556;13.384;2023-09-30T13:07:59;3.43;;;1.70;;
10162;SDS011;5123;52.556;13.384;2023-09-30T13:10:32;5.77;;;2.07;;
10162;SDS011;5123;52.556;13.384;2023-09-30T13:13:05;5.47;;;2.40;;
10162;SDS011;5123;52.556;13.384;2023-09-30T13:15:38;3.37;;;1.67;;
10162;SDS011;5123;52.556;13.384;2023-09-30T13:18:13;5.37;;;2.07;;
10162;SDS011;5123;52.556;13.384;2023-09-30T13:20:45;5.73;;;2.20;;
10162;SDS011;5123;52.556;13.384;2023-09-30T13:23:19;7.17;;;2.50;;
10162;SDS011;5123;52.556;13.384;2023-09-30T13:25:51;4.53;;;1.90;;
10162;SDS011;5123;52.556;13.384;2023-09-30T13:28:24;4.83;;;2.00;;
10162;SDS011;5123;52.556;13.384;2023-09-30T13:31:01;4.23;;;1.77;;
10162;SDS011;5123;52.556;13.384;2023-09-30T13:33:36;9.43;;;1.93;;
10162;SDS011;5123;52.556;13.384;2023-09-30T13:36:10;3.30;;;1.90;;
10162;SDS011;5123;52.556;13.384;2023-09-30T13:38:42;5.37;;;1.93;;
10162;SDS011;5123;52.556;13.384;2023-09-30T13:41:15;3.23;;;1.90;;
10162;SDS011;5123;52.556;13.384;2023-09-30T13:43:48;4.37;;;1.63;;
10162;SDS011;5123;52.556;13.384;2023-09-30T13:46:23;5.30;;;1.60;;
10162;SDS011;5123;52.556;13.384;2023-09-30T13:48:59;5.23;;;1.87;;
10162;SDS011;5123;52.556;13.384;2023-09-30T13:51:32;2.83;;;1.60;;
10162;SDS011;5123;52.556;13.384;2023-09-30T13:54:05;4.67;;;1.90;;
10162;SDS011;5123;52.556;13.384;2023-09-30T13:56:38;3.53;;;1.67;;
10162;SDS011;5123;52.556;13.384;2023-09-30T13:59:11;3.63;;;1.57;;
10162;SDS011;5123;52.556;13.384;2023-09-30T14:01:44;8.17;;;2.27;;
10162;SDS011;5123;52.556;13.384;2023-09-30T14:04:18;4.00;;;1.87;;
10162;SDS011;5123;52.556;13.384;2023-09-30T14:06:53;3.10;;;1.70;;
10162;SDS011;5123;52.556;13.384;2023-09-30T14:09:28;4.37;;;1.80;;
10162;SDS011;5123;52.556;13.384;2023-09-30T14:12:06;3.40;;;2.07;;
10162;SDS011;5123;52.556;13.384;2023-09-30T14:14:39;3.77;;;1.90;;
10162;SDS011;5123;52.556;13.384;2023-09-30T14:17:12;5.47;;;1.73;;
10162;SDS011;5123;52.556;13.384;2023-09-30T14:19:47;4.83;;;1.90;;
10162;SDS011;5123;52.556;13.384;2023-09-30T14:22:20;5.07;;;1.73;;
10162;SDS011;5123;52.556;13.384;2023-09-30T14:24:53;3.83;;;1.70;;
10162;SDS011;5123;52.556;13.384;2023-09-30T14:27:26;5.23;;;1.87;;
10162;SDS011;5123;52.556;13.384;2023-09-30T14:29:59;3.60;;;1.90;;
10162;SDS011;5123;52.556;13.384;2023-09-30T14:32:32;3.50;;;1.80;;
10162;SDS011;5123;52.556;13.384;2023-09-30T14:35:07;4.63;;;2.00;;
10162;SDS011;5123;52.556;13.384;2023-09-30T14:37:43;5.80;;;1.87;;
10162;SDS011;5123;52.556;13.384;2023-09-30T14:40:16;3.80;;;2.00;;
10162;SDS011;5123;52.556;13.384;2023-09-30T14:42:49;3.77;;;1.30;;
10162;SDS011;5123;52.556;13.384;2023-09-30T14:45:22;3.43;;;1.63;;
10162;SDS011;5123;52.556;13.384;2023-09-30T14:47:55;4.60;;;2.17;;
10162;SDS011;5123;52.556;13.384;2023-09-30T14:50:32;4.17;;;1.80;;
10162;SDS011;5123;52.556;13.384;2023-09-30T14:53:05;3.33;;;1.73;;
10162;SDS011;5123;52.556;13.384;2023-09-30T14:55:38;5.30;;;2.00;;
10162;SDS011;5123;52.556;13.384;2023-09-30T14:58:12;4.73;;;1.90;;
10162;SDS011;5123;52.556;13.384;2023-09-30T15:00:45;5.90;;;1.93;;
10162;SDS011;5123;52.556;13.384;2023-09-30T15:03:18;4.27;;;2.00;;
10162;SDS011;5123;52.556;13.384;2023-09-30T15:05:58;6.40;;;3.60;;
10162;SDS011;5123;52.556;13.384;2023-09-30T15:08:33;6.33;;;2.07;;
10162;SDS011;5123;52.556;13.384;2023-09-30T15:11:11;3.77;;;1.67;;
10162;SDS011;5123;52.556;13.384;2023-09-30T15:13:44;3.40;;;1.50;;
10162;SDS011;5123;52.556;13.384;2023-09-30T15:16:18;4.13;;;1.80;;
10162;SDS011;5123;52.556;13.384;2023-09-30T15:18:51;4.27;;;1.80;;
10162;SDS011;5123;52.556;13.384;2023-09-30T15:21:25;4.27;;;1.80;;
10162;SDS011;5123;52.556;13.384;2023-09-30T15:23:58;5.80;;;2.50;;
10162;SDS011;5123;52.556;13.384;2023-09-30T15:26:34;5.03;;;1.90;;
10162;SDS011;5123;52.556;13.384;2023-09-30T15:29:07;5.77;;;2.00;;
10162;SDS011;5123;52.556;13.384;2023-09-30T15:31:40;4.97;;;2.03;;
10162;SDS011;5123;52.556;13.384;2023-09-30T15:34:13;6.63;;;2.37;;
10162;SDS011;5123;52.556;13.384;2023-09-30T15:36:47;6.20;;;2.03;;
10162;SDS011;5123;52.556;13.384;2023-09-30T15:39:20;3.27;;;1.67;;